sensor_id;sensor_type;location;lat;lon;timestamp;temperature;humidity
29803;DHT22;16702;50.898;4.662;2024-01-16T00:01:54;2.50;99.90
29803;DHT22;16702;50.898;4.662;2024-01-16T00:04:24;2.50;99.90
29803;DHT22;16702;50.898;4.662;2024-01-16T00:06:57;2.50;99.90
29803;DHT22;16702;50.898;4.662;2024-01-16T00:09:32;2.40;99.90
29803;DHT22;16702;50.898;4.662;2024-01-16T00:12:04;2.40;99.90
29803;DHT22;16702;50.898;4.662;2024-01-16T00:14:35;2.40;99.90
29803;DHT22;16702;50.898;4.662;2024-01-16T00:17:07;2.40;99.90
29803;DHT22;16702;50.898;4.662;2024-01-16T00:19:37;2.50;99.90
29803;DHT22;16702;50.898;4.662;2024-01-16T00:22:08;2.40;99.90
29803;DHT22;16702;50.898;4.662;2024-01-16T00:24:41;2.40;99.90
29803;DHT22;16702;50.898;4.662;2024-01-16T00:27:11;2.40;99.90
29803;DHT22;16702;50.898;4.662;2024-01-16T00:29:42;2.40;99.90
29803;DHT22;16702;50.898;4.662;2024-01-16T00:32:13;2.50;99.90
29803;DHT22;16702;50.898;4.662;2024-01-16T00:34:43;2.50;99.90
29803;DHT22;16702;50.898;4.662;2024-01-16T00:37:14;2.40;99.90
29803;DHT22;16702;50.898;4.662;2024-01-16T00:39:47;2.40;99.90
29803;DHT22;16702;50.898;4.662;2024-01-16T00:42:17;2.40;99.90
29803;DHT22;16702;50.898;4.662;2024-01-16T00:44:48;2.40;99.90
29803;DHT22;16702;50.898;4.662;2024-01-16T00:47:19;2.40;99.90
29803;DHT22;16702;50.898;4.662;2024-01-16T00:49:49;2.30;99.90
29803;DHT22;16702;50.898;4.662;2024-01-16T00:52:20;2.40;99.90
29803;DHT22;16702;50.898;4.662;2024-01-16T00:54:53;2.40;99.90
29803;DHT22;16702;50.898;4.662;2024-01-16T00:57:24;2.30;99.90
29803;DHT22;16702;50.898;4.662;2024-01-16T00:59:54;2.30;99.90
29803;DHT22;16702;50.898;4.662;2024-01-16T01:02:25;2.30;99.90
29803;DHT22;16702;50.898;4.662;2024-01-16T01:04:55;2.30;99.90
29803;DHT22;16702;50.898;4.662;2024-01-16T01:07:26;2.30;99.90
29803;DHT22;16702;50.898;4.662;2024-01-16T01:09:59;2.20;99.90
29803;DHT22;16702;50.898;4.662;2024-01-16T01:12:30;2.30;99.90
29803;DHT22;16702;50.898;4.662;2024-01-16T01:15:01;2.30;99.90
29803;DHT22;16702;50.898;4.662;2024-01-16T01:17:32;2.30;99.90
29803;DHT22;16702;50.898;4.662;2024-01-16T01:20:03;2.30;99.90
29803;DHT22;16702;50.898;4.662;2024-01-16T01:22:34;2.30;99.90
29803;DHT22;16702;50.898;4.662;2024-01-16T01:25:08;2.30;99.90
29803;DHT22;16702;50.898;4.662;2024-01-16T01:27:39;2.30;99.90
29803;DHT22;16702;50.898;4.662;2024-01-16T01:30:10;2.30;99.90
29803;DHT22;16702;50.898;4.662;2024-01-16T01:32:41;2.30;99.90
29803;DHT22;16702;50.898;4.662;2024-01-16T01:35:11;2.30;99.90
29803;DHT22;16702;50.898;4.662;2024-01-16T01:37:42;2.30;99.90
29803;DHT22;16702;50.898;4.662;2024-01-16T01:40:15;2.30;99.90
29803;DHT22;16702;50.898;4.662;2024-01-16T01:42:46;2.30;99.90
29803;DHT22;16702;50.898;4.662;2024-01-16T01:45:16;2.30;99.90
29803;DHT22;16702;50.898;4.662;2024-01-16T01:47:47;2.30;99.90
29803;DHT22;16702;50.898;4.662;2024-01-16T01:50:18;2.20;99.90
29803;DHT22;16702;50.898;4.662;2024-01-16T01:52:49;2.20;99.90
29803;DHT22;16702;50.898;4.662;2024-01-16T01:55:22;2.20;99.90
29803;DHT22;16702;50.898;4.662;2024-01-16T01:57:53;2.20;99.90
29803;DHT22;16702;50.898;4.662;2024-01-16T02:00:24;2.20;99.90
29803;DHT22;16702;50.898;4.662;2024-01-16T02:02:55;2.20;99.90
29803;DHT22;16702;50.898;4.662;2024-01-16T02:05:25;2.20;99.90
29803;DHT22;16702;50.898;4.662;2024-01-16T02:07:57;2.20;99.90
29803;DHT22;16702;50.898;4.662;2024-01-16T02:10:31;2.10;99.90
29803;DHT22;16702;50.898;4.662;2024-01-16T02:13:02;2.10;99.90
29803;DHT22;16702;50.898;4.662;2024-01-16T02:15:33;2.20;99.90
29803;DHT22;16702;50.898;4.662;2024-01-16T02:18:04;2.20;99.90
29803;DHT22;16702;50.898;4.662;2024-01-16T02:20:34;2.10;99.90
29803;DHT22;16702;50.898;4.662;2024-01-16T02:23:05;2.10;99.90
29803;DHT22;16702;50.898;4.662;2024-01-16T02:25:40;2.10;99.90
29803;DHT22;16702;50.898;4.662;2024-01-16T02:28:11;2.10;99.90
29803;DHT22;16702;50.898;4.662;2024-01-16T02:30:42;2.10;99.90
29803;DHT22;16702;50.898;4.662;2024-01-16T02:33:13;2.10;99.90
29803;DHT22;16702;50.898;4.662;2024-01-16T02:35:43;2.10;99.90
29803;DHT22;16702;50.898;4.662;2024-01-16T02:38:14;2.10;99.90
29803;DHT22;16702;50.898;4.662;2024-01-16T02:40:47;2.10;99.90
29803;DHT22;16702;50.898;4.662;2024-01-16T02:43:18;2.10;99.90
29803;DHT22;16702;50.898;4.662;2024-01-16T02:45:48;2.10;99.90
29803;DHT22;16702;50.898;4.662;2024-01-16T02:48:19;2.10;99.90
29803;DHT22;16702;50.898;4.662;2024-01-16T02:50:53;2.10;99.90
29803;DHT22;16702;50.898;4.662;2024-01-16T02:53:24;2.10;99.90
29803;DHT22;16702;50.898;4.662;2024-01-16T02:55:58;2.10;99.90
29803;DHT22;16702;50.898;4.662;2024-01-16T02:58:29;2.10;99.90
29803;DHT22;16702;50.898;4.662;2024-01-16T03:01:00;2.10;99.90
29803;DHT22;16702;50.898;4.662;2024-01-16T03:03:31;2.10;99.90
29803;DHT22;16702;50.898;4.662;2024-01-16T03:06:02;2.10;99.90
29803;DHT22;16702;50.898;4.662;2024-01-16T03:08:33;2.00;99.90
29803;DHT22;16702;50.898;4.662;2024-01-16T03:11:06;2.00;99.90
29803;DHT22;16702;50.898;4.662;2024-01-16T03:13:37;2.00;99.90
29803;DHT22;16702;50.898;4.662;2024-01-16T03:16:08;2.00;99.90
29803;DHT22;16702;50.898;4.662;2024-01-16T03:18:40;2.00;99.90
29803;DHT22;16702;50.898;4.662;2024-01-16T03:21:12;2.10;99.90
29803;DHT22;16702;50.898;4.662;2024-01-16T03:23:43;2.00;99.90
29803;DHT22;16702;50.898;4.662;2024-01-16T03:26:16;2.10;99.90
29803;DHT22;16702;50.898;4.662;2024-01-16T03:28:47;2.10;99.90
29803;DHT22;16702;50.898;4.662;2024-01-16T03:31:18;2.10;99.90
29803;DHT22;16702;50.898;4.662;2024-01-16T03:33:49;2.10;99.90
29803;DHT22;16702;50.898;4.662;2024-01-16T03:36:20;2.10;99.90
29803;DHT22;16702;50.898;4.662;2024-01-16T03:38:51;2.10;99.90
29803;DHT22;16702;50.898;4.662;2024-01-16T03:41:24;2.10;99.90
29803;DHT22;16702;50.898;4.662;2024-01-16T03:43:55;2.10;99.90
29803;DHT22;16702;50.898;4.662;2024-01-16T03:46:25;2.10;99.90
29803;DHT22;16702;50.898;4.662;2024-01-16T03:48:56;2.10;99.90
29803;DHT22;16702;50.898;4.662;2024-01-16T03:51:26;2.00;99.90
29803;DHT22;16702;50.898;4.662;2024-01-16T03:53:57;2.00;99.90
29803;DHT22;16702;50.898;4.662;2024-01-16T03:56:30;2.00;99.90
29803;DHT22;16702;50.898;4.662;2024-01-16T03:59:00;2.10;99.90
29803;DHT22;16702;50.898;4.662;2024-01-16T04:01:31;2.00;99.90
29803;DHT22;16702;50.898;4.662;2024-01-16T04:04:04;2.00;99.90
29803;DHT22;16702;50.898;4.662;2024-01-16T04:06:35;2.10;99.90
29803;DHT22;16702;50.898;4.662;2024-01-16T04:09:07;2.00;99.90
29803;DHT22;16702;50.898;4.662;2024-01-16T04:11:40;2.00;99.90
29803;DHT22;16702;50.898;4.662;2024-01-16T04:14:11;2.00;99.90
29803;DHT22;16702;50.898;4.662;2024-01-16T04:16:41;2.00;99.90
29803;DHT22;16702;50.898;4.662;2024-01-16T04:19:12;2.10;99.90
29803;DHT22;16702;50.898;4.662;2024-01-16T04:21:45;2.00;99.90
29803;DHT22;16702;50.898;4.662;2024-01-16T04:24:15;2.00;99.90
29803;DHT22;16702;50.898;4.662;2024-01-16T04:26:48;2.00;99.90
29803;DHT22;16702;50.898;4.662;2024-01-16T04:29:19;1.90;99.90
29803;DHT22;16702;50.898;4.662;2024-01-16T04:31:50;1.90;99.90
29803;DHT22;16702;50.898;4.662;2024-01-16T04:34:20;1.90;99.90
29803;DHT22;16702;50.898;4.662;2024-01-16T04:36:51;1.90;99.90
29803;DHT22;16702;50.898;4.662;2024-01-16T04:39:21;1.90;99.90
29803;DHT22;16702;50.898;4.662;2024-01-16T04:41:55;1.90;99.90
29803;DHT22;16702;50.898;4.662;2024-01-16T04:44:25;1.90;99.90
29803;DHT22;16702;50.898;4.662;2024-01-16T04:46:56;1.90;99.90
29803;DHT22;16702;50.898;4.662;2024-01-16T04:49:27;1.90;99.90
29803;DHT22;16702;50.898;4.662;2024-01-16T04:51:57;1.90;99.90
29803;DHT22;16702;50.898;4.662;2024-01-16T04:54:28;1.90;99.90
29803;DHT22;16702;50.898;4.662;2024-01-16T04:57:01;1.90;99.90
29803;DHT22;16702;50.898;4.662;2024-01-16T04:59:32;1.90;99.90
29803;DHT22;16702;50.898;4.662;2024-01-16T05:02:02;2.00;99.90
29803;DHT22;16702;50.898;4.662;2024-01-16T05:04:36;1.80;99.90
29803;DHT22;16702;50.898;4.662;2024-01-16T05:07:07;1.90;99.90
29803;DHT22;16702;50.898;4.662;2024-01-16T05:09:37;1.80;99.90
29803;DHT22;16702;50.898;4.662;2024-01-16T05:12:10;1.80;99.90
29803;DHT22;16702;50.898;4.662;2024-01-16T05:14:41;1.80;99.90
29803;DHT22;16702;50.898;4.662;2024-01-16T05:17:11;1.80;99.90
29803;DHT22;16702;50.898;4.662;2024-01-16T05:19:42;1.70;99.90
29803;DHT22;16702;50.898;4.662;2024-01-16T05:22:13;1.80;99.90
29803;DHT22;16702;50.898;4.662;2024-01-16T05:24:43;1.80;99.90
29803;DHT22;16702;50.898;4.662;2024-01-16T05:27:16;1.80;99.90
29803;DHT22;16702;50.898;4.662;2024-01-16T05:29:47;1.70;99.90
29803;DHT22;16702;50.898;4.662;2024-01-16T05:32:17;1.80;99.90
29803;DHT22;16702;50.898;4.662;2024-01-16T05:34:48;1.70;99.90
29803;DHT22;16702;50.898;4.662;2024-01-16T05:37:19;1.70;99.90
29803;DHT22;16702;50.898;4.662;2024-01-16T05:39:50;1.70;99.90
29803;DHT22;16702;50.898;4.662;2024-01-16T05:42:23;1.70;99.90
29803;DHT22;16702;50.898;4.662;2024-01-16T05:44:53;1.70;99.90
29803;DHT22;16702;50.898;4.662;2024-01-16T05:47:24;1.70;99.90
29803;DHT22;16702;50.898;4.662;2024-01-16T05:49:55;1.70;99.90
29803;DHT22;16702;50.898;4.662;2024-01-16T05:52:26;1.60;99.90
29803;DHT22;16702;50.898;4.662;2024-01-16T05:54:57;1.60;99.90
29803;DHT22;16702;50.898;4.662;2024-01-16T05:57:30;1.60;99.90
29803;DHT22;16702;50.898;4.662;2024-01-16T06:00:02;1.50;99.90
29803;DHT22;16702;50.898;4.662;2024-01-16T06:02:33;1.60;99.90
29803;DHT22;16702;50.898;4.662;2024-01-16T06:05:04;1.50;99.90
29803;DHT22;16702;50.898;4.662;2024-01-16T06:07:35;1.50;99.90
29803;DHT22;16702;50.898;4.662;2024-01-16T06:10:08;1.50;99.90
29803;DHT22;16702;50.898;4.662;2024-01-16T06:12:42;1.50;99.90
29803;DHT22;16702;50.898;4.662;2024-01-16T06:15:13;1.50;99.90
29803;DHT22;16702;50.898;4.662;2024-01-16T06:17:43;1.50;99.90
29803;DHT22;16702;50.898;4.662;2024-01-16T06:20:14;1.50;99.90
29803;DHT22;16702;50.898;4.662;2024-01-16T06:22:45;1.40;99.90
29803;DHT22;16702;50.898;4.662;2024-01-16T06:25:15;1.40;99.90
29803;DHT22;16702;50.898;4.662;2024-01-16T06:27:48;1.40;99.90
29803;DHT22;16702;50.898;4.662;2024-01-16T06:30:20;1.40;99.90
29803;DHT22;16702;50.898;4.662;2024-01-16T06:32:50;1.40;99.90
29803;DHT22;16702;50.898;4.662;2024-01-16T06:35:22;1.50;99.90
29803;DHT22;16702;50.898;4.662;2024-01-16T06:37:53;1.40;99.90
29803;DHT22;16702;50.898;4.662;2024-01-16T06:40:24;1.50;99.90
29803;DHT22;16702;50.898;4.662;2024-01-16T06:42:57;1.40;99.90
29803;DHT22;16702;50.898;4.662;2024-01-16T06:45:28;1.50;99.90
29803;DHT22;16702;50.898;4.662;2024-01-16T06:47:58;1.40;99.90
29803;DHT22;16702;50.898;4.662;2024-01-16T06:50:29;1.40;99.90
29803;DHT22;16702;50.898;4.662;2024-01-16T06:53:00;1.40;99.90
29803;DHT22;16702;50.898;4.662;2024-01-16T06:55:31;1.40;99.90
29803;DHT22;16702;50.898;4.662;2024-01-16T06:58:04;1.30;99.90
29803;DHT22;16702;50.898;4.662;2024-01-16T07:00:34;1.50;99.90
29803;DHT22;16702;50.898;4.662;2024-01-16T07:03:05;1.40;99.90
29803;DHT22;16702;50.898;4.662;2024-01-16T07:05:35;1.50;99.90
29803;DHT22;16702;50.898;4.662;2024-01-16T07:08:08;1.40;99.90
29803;DHT22;16702;50.898;4.662;2024-01-16T07:10:39;1.40;99.90
29803;DHT22;16702;50.898;4.662;2024-01-16T07:13:12;1.40;99.90
29803;DHT22;16702;50.898;4.662;2024-01-16T07:15:42;1.50;99.90
29803;DHT22;16702;50.898;4.662;2024-01-16T07:18:13;1.40;99.90
29803;DHT22;16702;50.898;4.662;2024-01-16T07:20:44;1.60;99.90
29803;DHT22;16702;50.898;4.662;2024-01-16T07:23:15;1.50;99.90
29803;DHT22;16702;50.898;4.662;2024-01-16T07:25:46;1.50;99.90
29803;DHT22;16702;50.898;4.662;2024-01-16T07:28:19;1.50;99.90
29803;DHT22;16702;50.898;4.662;2024-01-16T07:30:53;1.50;99.90
29803;DHT22;16702;50.898;4.662;2024-01-16T07:33:24;1.40;99.90
29803;DHT22;16702;50.898;4.662;2024-01-16T07:35:55;1.40;99.90
29803;DHT22;16702;50.898;4.662;2024-01-16T07:38:25;1.60;99.90
29803;DHT22;16702;50.898;4.662;2024-01-16T07:40:56;1.50;99.90
29803;DHT22;16702;50.898;4.662;2024-01-16T07:43:29;1.50;99.90
29803;DHT22;16702;50.898;4.662;2024-01-16T07:46:00;1.50;99.90
29803;DHT22;16702;50.898;4.662;2024-01-16T07:48:30;1.50;99.90
29803;DHT22;16702;50.898;4.662;2024-01-16T07:51:01;1.50;99.90
29803;DHT22;16702;50.898;4.662;2024-01-16T07:53:32;1.50;99.90
29803;DHT22;16702;50.898;4.662;2024-01-16T07:56:03;1.40;99.90
29803;DHT22;16702;50.898;4.662;2024-01-16T07:58:36;1.50;99.90
29803;DHT22;16702;50.898;4.662;2024-01-16T08:01:06;1.40;99.90
29803;DHT22;16702;50.898;4.662;2024-01-16T08:03:37;1.40;99.90
29803;DHT22;16702;50.898;4.662;2024-01-16T08:06:09;1.40;99.90
29803;DHT22;16702;50.898;4.662;2024-01-16T08:08:39;1.40;99.90
29803;DHT22;16702;50.898;4.662;2024-01-16T08:11:10;1.40;99.90
29803;DHT22;16702;50.898;4.662;2024-01-16T08:13:43;1.40;99.90
29803;DHT22;16702;50.898;4.662;2024-01-16T08:16:16;1.40;99.90
29803;DHT22;16702;50.898;4.662;2024-01-16T08:18:46;1.40;99.90
29803;DHT22;16702;50.898;4.662;2024-01-16T08:21:21;1.40;99.90
29803;DHT22;16702;50.898;4.662;2024-01-16T08:23:52;1.40;99.90
29803;DHT22;16702;50.898;4.662;2024-01-16T08:26:22;1.40;99.90
29803;DHT22;16702;50.898;4.662;2024-01-16T08:28:56;1.40;99.90
29803;DHT22;16702;50.898;4.662;2024-01-16T08:31:26;1.40;99.90
29803;DHT22;16702;50.898;4.662;2024-01-16T08:33:57;1.40;99.90
29803;DHT22;16702;50.898;4.662;2024-01-16T08:36:28;1.50;99.90
29803;DHT22;16702;50.898;4.662;2024-01-16T08:38:59;1.60;99.90
29803;DHT22;16702;50.898;4.662;2024-01-16T08:41:30;1.50;99.90
29803;DHT22;16702;50.898;4.662;2024-01-16T08:44:04;1.60;99.90
29803;DHT22;16702;50.898;4.662;2024-01-16T08:46:34;1.50;99.90
29803;DHT22;16702;50.898;4.662;2024-01-16T08:49:05;1.50;99.90
29803;DHT22;16702;50.898;4.662;2024-01-16T08:51:37;1.50;99.90
29803;DHT22;16702;50.898;4.662;2024-01-16T08:54:08;1.50;99.90
29803;DHT22;16702;50.898;4.662;2024-01-16T08:56:39;1.50;99.90
29803;DHT22;16702;50.898;4.662;2024-01-16T08:59:12;1.60;99.90
29803;DHT22;16702;50.898;4.662;2024-01-16T09:01:45;1.60;99.90
29803;DHT22;16702;50.898;4.662;2024-01-16T09:04:15;1.70;99.90
29803;DHT22;16702;50.898;4.662;2024-01-16T09:06:46;1.60;99.90
29803;DHT22;16702;50.898;4.662;2024-01-16T09:09:17;1.60;99.90
29803;DHT22;16702;50.898;4.662;2024-01-16T09:11:49;1.60;99.90
29803;DHT22;16702;50.898;4.662;2024-01-16T09:14:22;1.70;99.90
29803;DHT22;16702;50.898;4.662;2024-01-16T09:16:53;1.70;99.90
29803;DHT22;16702;50.898;4.662;2024-01-16T09:19:24;1.70;99.90
29803;DHT22;16702;50.898;4.662;2024-01-16T09:21:55;1.70;99.90
29803;DHT22;16702;50.898;4.662;2024-01-16T09:24:26;1.80;99.90
29803;DHT22;16702;50.898;4.662;2024-01-16T09:26:56;1.80;99.90
29803;DHT22;16702;50.898;4.662;2024-01-16T09:29:30;1.70;99.90
29803;DHT22;16702;50.898;4.662;2024-01-16T09:32:02;1.70;99.90
29803;DHT22;16702;50.898;4.662;2024-01-16T09:34:32;1.70;99.90
29803;DHT22;16702;50.898;4.662;2024-01-16T09:37:03;1.70;99.90
29803;DHT22;16702;50.898;4.662;2024-01-16T09:39:34;1.70;99.90
29803;DHT22;16702;50.898;4.662;2024-01-16T09:42:05;1.70;99.90
29803;DHT22;16702;50.898;4.662;2024-01-16T09:44:38;1.70;99.90
29803;DHT22;16702;50.898;4.662;2024-01-16T09:47:10;1.70;99.90
29803;DHT22;16702;50.898;4.662;2024-01-16T09:49:42;1.70;99.90
29803;DHT22;16702;50.898;4.662;2024-01-16T09:52:13;1.60;99.90
29803;DHT22;16702;50.898;4.662;2024-01-16T09:54:43;1.60;99.90
29803;DHT22;16702;50.898;4.662;2024-01-16T09:57:15;1.70;99.90
29803;DHT22;16702;50.898;4.662;2024-01-16T09:59:52;1.70;99.90
29803;DHT22;16702;50.898;4.662;2024-01-16T10:02:23;1.70;99.90
29803;DHT22;16702;50.898;4.662;2024-01-16T10:04:54;1.70;99.90
29803;DHT22;16702;50.898;4.662;2024-01-16T10:07:25;1.80;99.90
29803;DHT22;16702;50.898;4.662;2024-01-16T10:09:56;1.80;99.90
29803;DHT22;16702;50.898;4.662;2024-01-16T10:12:27;1.80;99.90
29803;DHT22;16702;50.898;4.662;2024-01-16T10:15:01;1.80;99.90
29803;DHT22;16702;50.898;4.662;2024-01-16T10:17:39;1.90;99.90
29803;DHT22;16702;50.898;4.662;2024-01-16T10:20:10;1.90;99.90
29803;DHT22;16702;50.898;4.662;2024-01-16T10:22:53;1.90;99.90
29803;DHT22;16702;50.898;4.662;2024-01-16T10:25:26;1.90;99.90
29803;DHT22;16702;50.898;4.662;2024-01-16T10:28:04;1.90;99.90
29803;DHT22;16702;50.898;4.662;2024-01-16T10:30:40;1.90;99.90
29803;DHT22;16702;50.898;4.662;2024-01-16T10:33:15;1.90;99.90
29803;DHT22;16702;50.898;4.662;2024-01-16T10:35:46;2.00;99.90
29803;DHT22;16702;50.898;4.662;2024-01-16T10:38:20;2.00;99.90
29803;DHT22;16702;50.898;4.662;2024-01-16T10:41:05;2.00;99.90
29803;DHT22;16702;50.898;4.662;2024-01-16T10:43:36;2.10;99.90
29803;DHT22;16702;50.898;4.662;2024-01-16T10:46:13;2.10;99.90
29803;DHT22;16702;50.898;4.662;2024-01-16T10:48:44;2.10;99.90
29803;DHT22;16702;50.898;4.662;2024-01-16T10:51:16;2.20;99.90
29803;DHT22;16702;50.898;4.662;2024-01-16T10:53:47;2.20;99.90
29803;DHT22;16702;50.898;4.662;2024-01-16T10:56:19;2.20;99.90
29803;DHT22;16702;50.898;4.662;2024-01-16T10:58:57;2.20;99.90
29803;DHT22;16702;50.898;4.662;2024-01-16T11:01:33;2.20;99.90
29803;DHT22;16702;50.898;4.662;2024-01-16T11:04:05;2.30;99.90
29803;DHT22;16702;50.898;4.662;2024-01-16T11:06:40;2.50;99.90
29803;DHT22;16702;50.898;4.662;2024-01-16T11:09:13;2.40;99.90
29803;DHT22;16702;50.898;4.662;2024-01-16T11:11:46;2.50;99.90
29803;DHT22;16702;50.898;4.662;2024-01-16T11:14:17;2.50;99.90
29803;DHT22;16702;50.898;4.662;2024-01-16T11:16:53;2.50;99.90
29803;DHT22;16702;50.898;4.662;2024-01-16T11:19:26;2.50;99.90
29803;DHT22;16702;50.898;4.662;2024-01-16T11:22:18;2.60;99.90
29803;DHT22;16702;50.898;4.662;2024-01-16T11:25:10;2.60;99.90
29803;DHT22;16702;50.898;4.662;2024-01-16T11:27:41;2.70;99.90
29803;DHT22;16702;50.898;4.662;2024-01-16T11:30:13;2.70;99.90
29803;DHT22;16702;50.898;4.662;2024-01-16T11:33:02;2.70;99.90
29803;DHT22;16702;50.898;4.662;2024-01-16T11:35:33;2.80;99.90
29803;DHT22;16702;50.898;4.662;2024-01-16T11:38:06;2.80;99.90
29803;DHT22;16702;50.898;4.662;2024-01-16T11:40:36;2.80;99.90
29803;DHT22;16702;50.898;4.662;2024-01-16T11:43:37;2.90;99.90
29803;DHT22;16702;50.898;4.662;2024-01-16T11:46:08;2.80;99.90
29803;DHT22;16702;50.898;4.662;2024-01-16T11:48:41;2.90;99.90
29803;DHT22;16702;50.898;4.662;2024-01-16T11:51:25;2.90;99.90
29803;DHT22;16702;50.898;4.662;2024-01-16T11:53:56;3.00;99.90
29803;DHT22;16702;50.898;4.662;2024-01-16T11:57:00;3.00;99.90
29803;DHT22;16702;50.898;4.662;2024-01-16T11:59:57;3.10;99.90
29803;DHT22;16702;50.898;4.662;2024-01-16T12:02:46;3.10;99.90
29803;DHT22;16702;50.898;4.662;2024-01-16T12:05:20;3.00;99.90
29803;DHT22;16702;50.898;4.662;2024-01-16T12:07:52;3.10;99.90
29803;DHT22;16702;50.898;4.662;2024-01-16T12:10:24;3.20;99.90
29803;DHT22;16702;50.898;4.662;2024-01-16T12:12:58;3.10;99.90
29803;DHT22;16702;50.898;4.662;2024-01-16T12:15:32;3.20;99.90
29803;DHT22;16702;50.898;4.662;2024-01-16T12:18:03;3.30;99.90
29803;DHT22;16702;50.898;4.662;2024-01-16T12:20:48;3.30;99.90
29803;DHT22;16702;50.898;4.662;2024-01-16T12:23:19;3.20;99.90
29803;DHT22;16702;50.898;4.662;2024-01-16T12:25:52;3.30;99.90
29803;DHT22;16702;50.898;4.662;2024-01-16T12:28:30;3.40;99.90
29803;DHT22;16702;50.898;4.662;2024-01-16T12:31:01;3.40;99.90
29803;DHT22;16702;50.898;4.662;2024-01-16T12:33:33;3.40;99.90
29803;DHT22;16702;50.898;4.662;2024-01-16T12:36:08;3.50;99.90
29803;DHT22;16702;50.898;4.662;2024-01-16T12:38:39;3.50;99.90
29803;DHT22;16702;50.898;4.662;2024-01-16T12:41:10;3.40;99.90
29803;DHT22;16702;50.898;4.662;2024-01-16T12:43:43;3.50;99.90
29803;DHT22;16702;50.898;4.662;2024-01-16T12:46:21;3.50;99.90
29803;DHT22;16702;50.898;4.662;2024-01-16T12:48:52;3.60;99.90
29803;DHT22;16702;50.898;4.662;2024-01-16T12:51:35;3.50;99.90
29803;DHT22;16702;50.898;4.662;2024-01-16T12:54:13;3.60;99.90
29803;DHT22;16702;50.898;4.662;2024-01-16T12:56:45;3.60;99.90
29803;DHT22;16702;50.898;4.662;2024-01-16T12:59:15;3.60;99.90
29803;DHT22;16702;50.898;4.662;2024-01-16T13:01:46;3.60;99.90
29803;DHT22;16702;50.898;4.662;2024-01-16T13:04:17;3.60;99.90
29803;DHT22;16702;50.898;4.662;2024-01-16T13:07:01;3.70;99.90
29803;DHT22;16702;50.898;4.662;2024-01-16T13:09:33;3.60;99.90
29803;DHT22;16702;50.898;4.662;2024-01-16T13:12:04;3.70;99.90
29803;DHT22;16702;50.898;4.662;2024-01-16T13:14:35;3.70;99.90
29803;DHT22;16702;50.898;4.662;2024-01-16T13:17:06;3.70;99.90
29803;DHT22;16702;50.898;4.662;2024-01-16T13:19:37;3.70;99.90
29803;DHT22;16702;50.898;4.662;2024-01-16T13:22:12;3.80;99.90
29803;DHT22;16702;50.898;4.662;2024-01-16T13:24:43;3.80;99.90
29803;DHT22;16702;50.898;4.662;2024-01-16T13:27:27;3.80;99.90
29803;DHT22;16702;50.898;4.662;2024-01-16T13:29:59;3.80;99.90
29803;DHT22;16702;50.898;4.662;2024-01-16T13:32:30;3.80;99.90
29803;DHT22;16702;50.898;4.662;2024-01-16T13:35:05;3.80;99.90
29803;DHT22;16702;50.898;4.662;2024-01-16T13:37:40;3.80;99.90
29803;DHT22;16702;50.898;4.662;2024-01-16T13:40:10;3.80;99.90
29803;DHT22;16702;50.898;4.662;2024-01-16T13:42:48;3.80;99.90
29803;DHT22;16702;50.898;4.662;2024-01-16T13:45:19;3.90;99.90
29803;DHT22;16702;50.898;4.662;2024-01-16T13:47:50;3.90;99.90
29803;DHT22;16702;50.898;4.662;2024-01-16T13:50:21;3.70;99.90
29803;DHT22;16702;50.898;4.662;2024-01-16T13:52:54;3.80;99.90
29803;DHT22;16702;50.898;4.662;2024-01-16T13:55:25;3.80;99.90
29803;DHT22;16702;50.898;4.662;2024-01-16T13:57:55;3.80;99.90
29803;DHT22;16702;50.898;4.662;2024-01-16T14:00:27;3.90;99.90
29803;DHT22;16702;50.898;4.662;2024-01-16T14:02:58;3.90;99.90
29803;DHT22;16702;50.898;4.662;2024-01-16T14:05:31;3.90;99.90
29803;DHT22;16702;50.898;4.662;2024-01-16T14:08:05;3.90;99.90
29803;DHT22;16702;50.898;4.662;2024-01-16T14:10:35;3.90;99.90
29803;DHT22;16702;50.898;4.662;2024-01-16T14:13:06;3.90;99.90
29803;DHT22;16702;50.898;4.662;2024-01-16T14:15:37;3.80;99.90
29803;DHT22;16702;50.898;4.662;2024-01-16T14:18:08;3.90;99.90
29803;DHT22;16702;50.898;4.662;2024-01-16T14:20:39;3.90;99.90
29803;DHT22;16702;50.898;4.662;2024-01-16T14:23:12;3.90;99.90
29803;DHT22;16702;50.898;4.662;2024-01-16T14:25:43;3.90;99.90
29803;DHT22;16702;50.898;4.662;2024-01-16T14:28:13;3.90;99.90
29803;DHT22;16702;50.898;4.662;2024-01-16T14:30:55;3.90;99.90
29803;DHT22;16702;50.898;4.662;2024-01-16T14:33:26;3.90;99.90
29803;DHT22;16702;50.898;4.662;2024-01-16T14:35:57;3.90;99.90
29803;DHT22;16702;50.898;4.662;2024-01-16T14:38:31;3.90;99.90
29803;DHT22;16702;50.898;4.662;2024-01-16T14:41:02;3.80;99.90
29803;DHT22;16702;50.898;4.662;2024-01-16T14:43:33;3.80;99.90
29803;DHT22;16702;50.898;4.662;2024-01-16T14:46:04;3.80;99.90
29803;DHT22;16702;50.898;4.662;2024-01-16T14:48:38;3.90;99.90
29803;DHT22;16702;50.898;4.662;2024-01-16T14:51:13;3.80;99.90
29803;DHT22;16702;50.898;4.662;2024-01-16T14:53:47;3.90;99.90
29803;DHT22;16702;50.898;4.662;2024-01-16T14:56:17;3.80;99.90
29803;DHT22;16702;50.898;4.662;2024-01-16T14:58:48;3.80;99.90
29803;DHT22;16702;50.898;4.662;2024-01-16T15:01:19;3.80;99.90
29803;DHT22;16702;50.898;4.662;2024-01-16T15:03:49;3.80;99.90
29803;DHT22;16702;50.898;4.662;2024-01-16T15:06:21;3.70;99.90
29803;DHT22;16702;50.898;4.662;2024-01-16T15:08:57;3.80;99.90
29803;DHT22;16702;50.898;4.662;2024-01-16T15:11:28;3.80;99.90
29803;DHT22;16702;50.898;4.662;2024-01-16T15:14:00;3.80;99.90
29803;DHT22;16702;50.898;4.662;2024-01-16T15:16:30;3.70;99.90
29803;DHT22;16702;50.898;4.662;2024-01-16T15:19:01;3.80;99.90
29803;DHT22;16702;50.898;4.662;2024-01-16T15:21:31;3.80;99.90
29803;DHT22;16702;50.898;4.662;2024-01-16T15:24:05;3.70;99.90
29803;DHT22;16702;50.898;4.662;2024-01-16T15:26:35;3.70;99.90
29803;DHT22;16702;50.898;4.662;2024-01-16T15:29:06;3.70;99.90
29803;DHT22;16702;50.898;4.662;2024-01-16T15:31:37;3.60;99.90
29803;DHT22;16702;50.898;4.662;2024-01-16T15:34:08;3.60;99.90
29803;DHT22;16702;50.898;4.662;2024-01-16T15:36:43;3.60;99.90
29803;DHT22;16702;50.898;4.662;2024-01-16T15:39:16;3.60;99.90
29803;DHT22;16702;50.898;4.662;2024-01-16T15:41:49;3.60;99.90
29803;DHT22;16702;50.898;4.662;2024-01-16T15:44:19;3.60;99.90
29803;DHT22;16702;50.898;4.662;2024-01-16T15:47:00;3.60;99.90
29803;DHT22;16702;50.898;4.662;2024-01-16T15:49:31;3.60;99.90
29803;DHT22;16702;50.898;4.662;2024-01-16T15:52:03;3.50;99.90
29803;DHT22;16702;50.898;4.662;2024-01-16T15:54:36;3.50;99.90
29803;DHT22;16702;50.898;4.662;2024-01-16T15:57:07;3.50;99.90
29803;DHT22;16702;50.898;4.662;2024-01-16T15:59:38;3.40;99.90
29803;DHT22;16702;50.898;4.662;2024-01-16T16:02:09;3.40;99.90
29803;DHT22;16702;50.898;4.662;2024-01-16T16:04:39;3.50;99.90
29803;DHT22;16702;50.898;4.662;2024-01-16T16:07:10;3.40;99.90
29803;DHT22;16702;50.898;4.662;2024-01-16T16:09:43;3.50;99.90
29803;DHT22;16702;50.898;4.662;2024-01-16T16:12:14;3.60;99.90
29803;DHT22;16702;50.898;4.662;2024-01-16T16:14:45;3.50;99.90
29803;DHT22;16702;50.898;4.662;2024-01-16T16:17:16;3.40;99.90